createdAt,value
2022-08-05T00:01:36.316Z,47.03
2022-08-05T00:04:17.683Z,47.21
2022-08-05T00:06:47.056Z,47.35
2022-08-05T00:09:19.671Z,47.54
2022-08-05T00:11:49.597Z,47.74
2022-08-05T00:14:29.018Z,48.37
2022-08-05T00:16:57.760Z,48.92
2022-08-05T00:19:33.775Z,49.06
2022-08-05T00:22:11.235Z,48.75
2022-08-05T00:24:42.635Z,48.13
2022-08-05T00:27:14.070Z,47.91
2022-08-05T00:29:44.969Z,47.99
2022-08-05T00:32:15.517Z,48.03
2022-08-05T00:35:04.370Z,47.93
2022-08-05T00:37:50.824Z,47.75
2022-08-05T00:40:26.838Z,47.84
2022-08-05T00:42:57.845Z,47.87
2022-08-05T00:45:38.986Z,48.21
2022-08-05T00:48:13.747Z,48.04
2022-08-05T00:50:45.925Z,47.62
2022-08-05T00:53:59.858Z,48.10
2022-08-05T00:56:07.920Z,48.29
2022-08-05T00:58:36.205Z,48.24
2022-08-05T01:01:08.647Z,48.11
2022-08-05T01:03:37.524Z,48.27
2022-08-05T01:06:05.842Z,48.18
2022-08-05T01:08:43.446Z,47.98
2022-08-05T01:11:21.846Z,48.37
2022-08-05T01:14:08.969Z,48.19
2022-08-05T01:16:45.360Z,48.81
2022-08-05T01:19:30.430Z,48.65
2022-08-05T01:22:41.668Z,48.48
2022-08-05T01:25:40.220Z,48.50
2022-08-05T01:28:34.508Z,48.28
2022-08-05T01:31:08.693Z,48.30
2022-08-05T01:33:48.952Z,48.15
2022-08-05T01:36:21.470Z,48.08
2022-08-05T01:39:00.933Z,48.52
2022-08-05T01:41:34.032Z,48.68
2022-08-05T01:44:04.074Z,48.95
2022-08-05T01:46:43.051Z,49.17
2022-08-05T01:49:23.341Z,49.24
2022-08-05T01:51:55.890Z,49.64
2022-08-05T01:54:27.848Z,49.88
2022-08-05T01:58:10.810Z,49.78
2022-08-05T01:59:50.321Z,49.49
2022-08-05T02:02:26.281Z,49.45
2022-08-05T02:05:00.917Z,49.56
2022-08-05T02:07:32.173Z,49.78
2022-08-05T02:10:02.163Z,49.48
2022-08-05T02:12:38.374Z,49.86
2022-08-05T02:15:13.768Z,49.66
2022-08-05T02:18:28.766Z,49.27
2022-08-05T02:20:53.648Z,49.94
2022-08-05T02:23:33.718Z,50.00
2022-08-05T02:26:05.954Z,50.35
2022-08-05T02:28:41.863Z,50.64
2022-08-05T02:31:21.306Z,50.75
2022-08-05T02:33:57.394Z,50.69
2022-08-05T02:36:31.192Z,50.72
2022-08-05T02:39:02.800Z,51.10
2022-08-05T02:41:42.903Z,50.96
2022-08-05T02:44:25.352Z,51.05
2022-08-05T02:47:00.646Z,50.92
2022-08-05T02:49:36.915Z,51.23
2022-08-05T02:52:11.531Z,51.58
2022-08-05T02:54:50.584Z,51.60
2022-08-05T02:58:10.221Z,51.35
2022-08-05T03:00:10.390Z,51.45
2022-08-05T03:02:42.774Z,51.39
2022-08-05T03:05:12.766Z,51.51
2022-08-05T03:08:06.974Z,51.51
2022-08-05T03:10:30.798Z,51.53
2022-08-05T03:15:28.414Z,51.40
2022-08-05T03:17:59.467Z,51.30
2022-08-05T03:20:27.682Z,51.30
2022-08-05T03:22:57.610Z,51.18
2022-08-05T03:25:33.975Z,51.29
2022-08-05T03:28:18.467Z,51.64
2022-08-05T03:30:48.470Z,51.77
2022-08-05T03:33:18.005Z,51.47
2022-08-05T03:35:47.505Z,51.59
2022-08-05T03:38:15.984Z,51.50
2022-08-05T03:40:48.659Z,51.55
2022-08-05T03:44:09.535Z,51.54
2022-08-05T03:46:08.237Z,51.41
2022-08-05T03:48:37.823Z,51.61
2022-08-05T03:52:37.938Z,51.63
2022-08-05T03:55:52.466Z,51.71
2022-08-05T03:56:58.889Z,51.63
2022-08-05T03:59:46.578Z,51.68
2022-08-05T04:02:39.067Z,51.51
2022-08-05T04:05:10.315Z,51.37
2022-08-05T04:07:51.480Z,51.27
2022-08-05T04:10:30.962Z,51.28
2022-08-05T04:13:03.497Z,50.90
2022-08-05T04:15:33.013Z,50.98
2022-08-05T04:18:06.777Z,50.85
2022-08-05T04:20:37.405Z,50.85
2022-08-05T04:23:05.504Z,50.63
2022-08-05T04:25:56.428Z,50.96
2022-08-05T04:28:28.550Z,50.51
2022-08-05T04:31:00.972Z,51.39
2022-08-05T04:33:54.591Z,51.63
2022-08-05T04:36:45.558Z,51.95
2022-08-05T04:39:07.800Z,52.12
2022-08-05T04:41:36.837Z,51.64
2022-08-05T04:44:09.006Z,51.23
2022-08-05T04:46:38.315Z,50.74
2022-08-05T04:49:12.383Z,50.77
2022-08-05T04:51:44.639Z,50.43
2022-08-05T04:54:14.533Z,50.41
2022-08-05T04:56:42.505Z,50.46
2022-08-05T04:59:22.093Z,50.30
2022-08-05T05:02:07.417Z,50.14
2022-08-05T05:04:47.521Z,50.08
2022-08-05T05:07:18.303Z,50.01
2022-08-05T05:09:52.357Z,49.91
2022-08-05T05:12:22.265Z,49.84
2022-08-05T05:14:51.371Z,50.22
2022-08-05T05:17:24.353Z,50.47
2022-08-05T05:19:56.571Z,50.82
2022-08-05T05:22:26.958Z,50.75
2022-08-05T05:24:58.564Z,51.08
2022-08-05T05:27:44.433Z,51.45
2022-08-05T05:30:29.852Z,51.90
2022-08-05T05:33:08.901Z,51.73
2022-08-05T05:35:45.318Z,51.64
2022-08-05T05:38:22.152Z,51.71
2022-08-05T05:40:54.866Z,51.59
2022-08-05T05:43:56.872Z,51.69
2022-08-05T05:46:15.844Z,51.38
2022-08-05T05:48:44.704Z,50.87
2022-08-05T05:51:20.083Z,51.37
2022-08-05T05:53:57.806Z,51.46
2022-08-05T05:56:33.047Z,51.05
2022-08-05T05:59:05.484Z,50.80
2022-08-05T06:01:37.463Z,50.68
2022-08-05T06:04:07.091Z,50.72
2022-08-05T06:06:35.816Z,50.09
2022-08-05T06:09:07.658Z,49.99
2022-08-05T06:11:39.299Z,50.18
2022-08-05T06:14:07.514Z,50.53
2022-08-05T06:16:36.798Z,50.36
2022-08-05T06:19:07.492Z,50.21
2022-08-05T06:21:38.865Z,49.75
2022-08-05T06:24:12.871Z,49.71
2022-08-05T06:26:45.860Z,49.34
2022-08-05T06:29:45.360Z,49.98
2022-08-05T06:32:32.415Z,49.71
2022-08-05T06:35:05.761Z,49.86
2022-08-05T06:37:52.323Z,49.85
2022-08-05T06:40:28.025Z,49.34
2022-08-05T06:43:00.552Z,49.26
2022-08-05T06:45:44.884Z,49.29
2022-08-05T06:48:53.378Z,49.66
2022-08-05T06:51:09.668Z,49.42
2022-08-05T06:53:39.543Z,49.48
2022-08-05T06:56:16.302Z,49.25
2022-08-05T06:58:54.150Z,48.85
2022-08-05T07:01:22.656Z,48.65
2022-08-05T07:03:50.806Z,48.47
2022-08-05T07:06:20.734Z,48.13
2022-08-05T07:08:52.043Z,48.21
2022-08-05T07:11:25.418Z,47.88
2022-08-05T07:14:15.413Z,48.16
2022-08-05T07:17:59.256Z,47.81
2022-08-05T07:22:28.832Z,47.93
2022-08-05T07:25:22.561Z,47.28
2022-08-05T07:27:58.634Z,47.21
2022-08-05T07:30:33.349Z,47.21
2022-08-05T07:33:16.190Z,46.58
2022-08-05T07:36:02.940Z,46.59
2022-08-05T07:38:42.648Z,45.36
2022-08-05T07:42:09.594Z,45.14
2022-08-05T07:44:14.215Z,44.27
2022-08-05T07:46:48.536Z,44.87
2022-08-05T07:49:18.619Z,44.79
2022-08-05T07:51:52.904Z,44.47
2022-08-05T07:54:30.704Z,44.92
2022-08-05T07:57:22.718Z,44.68
2022-08-05T07:59:52.551Z,44.42
2022-08-05T08:02:26.819Z,44.40
2022-08-05T08:04:59.633Z,43.96
2022-08-05T08:07:28.975Z,43.90
2022-08-05T08:10:07.989Z,43.88
2022-08-05T08:12:49.411Z,43.77
2022-08-05T08:16:33.891Z,43.49
2022-08-05T08:18:13.855Z,43.13
2022-08-05T08:21:03.201Z,43.04
2022-08-05T08:24:01.279Z,43.01
2022-08-05T08:26:26.926Z,43.20
2022-08-05T08:29:21.980Z,43.19
2022-08-05T08:31:49.224Z,43.37
2022-08-05T08:34:18.711Z,43.38
2022-08-05T08:37:05.012Z,43.03
2022-08-05T08:39:37.549Z,43.02
2022-08-05T08:42:32.298Z,42.77
2022-08-05T08:45:21.244Z,42.78
2022-08-05T08:48:12.330Z,42.45
2022-08-05T08:51:03.665Z,42.58
2022-08-05T08:53:30.317Z,42.20
2022-08-05T08:56:04.459Z,42.09
2022-08-05T08:58:37.097Z,41.47
2022-08-05T09:01:16.294Z,41.52
2022-08-05T09:03:54.283Z,41.56
2022-08-05T09:06:28.079Z,41.16
2022-08-05T09:08:58.867Z,41.13
2022-08-05T09:11:50.910Z,41.33
2022-08-05T09:14:56.488Z,41.22
2022-08-05T09:17:04.992Z,41.37
2022-08-05T09:20:01.911Z,40.92
2022-08-05T09:22:31.759Z,40.62
2022-08-05T09:25:13.741Z,40.58
2022-08-05T09:28:03.758Z,40.31
2022-08-05T09:30:35.088Z,40.48
2022-08-05T09:33:05.803Z,40.52
2022-08-05T09:35:35.364Z,40.67
2022-08-05T09:38:11.948Z,40.35
2022-08-05T09:40:52.545Z,40.65
2022-08-05T09:43:40.883Z,40.54
2022-08-05T09:46:27.607Z,40.32
2022-08-05T09:49:08.272Z,40.03
2022-08-05T09:51:48.763Z,40.38
2022-08-05T09:54:28.900Z,40.18
2022-08-05T09:57:01.763Z,39.99
2022-08-05T09:59:35.208Z,39.31
2022-08-05T10:02:06.305Z,39.87
2022-08-05T10:04:41.008Z,39.00
2022-08-05T10:07:20.741Z,38.31
2022-08-05T10:10:04.300Z,38.95
2022-08-05T10:12:49.401Z,38.94
2022-08-05T10:15:21.907Z,38.95
2022-08-05T10:18:22.454Z,39.22
2022-08-05T10:20:53.481Z,38.75
2022-08-05T10:23:55.209Z,37.65
2022-08-05T10:26:51.686Z,36.81
2022-08-05T10:29:02.511Z,37.37
2022-08-05T10:32:54.432Z,37.40
2022-08-05T10:34:25.904Z,37.53
2022-08-05T10:36:58.328Z,37.94
2022-08-05T10:39:59.526Z,37.42
2022-08-05T10:42:34.375Z,36.30
2022-08-05T10:45:20.969Z,35.83
2022-08-05T10:48:29.848Z,35.59
2022-08-05T10:50:59.047Z,35.85
2022-08-05T10:53:45.583Z,36.56
2022-08-05T10:56:25.200Z,36.85
2022-08-05T11:00:03.710Z,37.17
2022-08-05T11:02:14.398Z,35.98
2022-08-05T11:05:00.246Z,35.72
2022-08-05T11:07:33.175Z,35.75
2022-08-05T11:10:27.455Z,35.86
2022-08-05T11:12:58.219Z,35.93
2022-08-05T11:16:00.874Z,35.50
2022-08-05T11:18:34.051Z,35.38
2022-08-05T11:21:11.438Z,36.00
2022-08-05T11:24:05.286Z,35.87
2022-08-05T11:26:34.903Z,35.12
2022-08-05T11:29:13.345Z,35.32
2022-08-05T11:31:57.639Z,35.74
2022-08-05T11:34:40.178Z,35.79
2022-08-05T11:38:30.298Z,36.43
2022-08-05T11:41:13.944Z,35.49
2022-08-05T11:44:06.729Z,34.64
2022-08-05T11:47:10.109Z,34.47
2022-08-05T11:49:28.758Z,34.60
2022-08-05T11:51:57.341Z,34.43
2022-08-05T11:54:33.419Z,34.24
2022-08-05T11:57:08.819Z,34.18
2022-08-05T11:59:52.854Z,34.16
2022-08-05T12:02:30.352Z,33.80
2022-08-05T12:05:07.438Z,33.25
2022-08-05T12:08:03.190Z,33.34
2022-08-05T12:10:43.771Z,33.41
2022-08-05T12:13:17.125Z,33.53
2022-08-05T12:15:49.729Z,33.66
2022-08-05T12:18:32.794Z,33.70
2022-08-05T12:21:11.263Z,33.52
2022-08-05T12:23:42.891Z,33.87
2022-08-05T12:26:11.768Z,34.15
2022-08-05T12:28:40.179Z,34.08
2022-08-05T12:31:09.762Z,34.29
2022-08-05T12:33:39.174Z,33.79
2022-08-05T12:36:11.639Z,33.12
2022-08-05T12:38:40.421Z,32.84
2022-08-05T12:41:12.939Z,32.32
2022-08-05T12:43:55.472Z,32.50
2022-08-05T12:46:29.793Z,32.45
2022-08-05T12:49:12.920Z,32.57
2022-08-05T12:52:12.081Z,32.49
2022-08-05T12:54:34.413Z,32.14
2022-08-05T12:57:03.982Z,31.99
2022-08-05T13:01:56.804Z,31.96
2022-08-05T13:02:39.809Z,32.08
2022-08-05T13:05:12.560Z,32.35
2022-08-05T13:08:01.281Z,32.20
2022-08-05T13:10:33.077Z,31.36
2022-08-05T13:13:02.766Z,31.10
2022-08-05T13:15:41.225Z,30.46
2022-08-05T13:18:19.636Z,30.14
2022-08-05T13:20:50.402Z,29.42
2022-08-05T13:23:22.658Z,29.27
2022-08-05T13:25:58.881Z,29.38
2022-08-05T13:28:27.803Z,29.04
2022-08-05T13:30:55.707Z,28.72
2022-08-05T13:34:24.652Z,28.62
2022-08-05T13:36:14.770Z,28.54
2022-08-05T13:38:43.307Z,28.87
2022-08-05T13:41:11.951Z,27.95
2022-08-05T13:43:44.822Z,27.59
2022-08-05T13:47:01.652Z,28.40
2022-08-05T13:49:12.046Z,27.71
2022-08-05T13:51:46.538Z,27.22
2022-08-05T13:54:15.979Z,27.01
2022-08-05T13:56:50.955Z,26.90
2022-08-05T13:59:24.905Z,26.55
2022-08-05T14:01:59.267Z,26.36
2022-08-05T14:04:49.472Z,26.51
2022-08-05T14:07:55.796Z,26.81
2022-08-05T14:10:12.079Z,26.89
2022-08-05T14:12:40.145Z,26.01
2022-08-05T14:16:06.193Z,26.06
2022-08-05T14:18:00.704Z,25.60
2022-08-05T14:20:29.933Z,26.14
2022-08-05T14:22:59.953Z,26.35
2022-08-05T14:25:30.251Z,25.81
2022-08-05T14:27:59.004Z,25.77
2022-08-05T14:30:27.825Z,25.77
2022-08-05T14:32:56.754Z,25.56
2022-08-05T14:35:37.039Z,25.71
2022-08-05T14:38:07.096Z,24.74
2022-08-05T14:40:55.185Z,25.20
2022-08-05T14:43:58.833Z,25.03
2022-08-05T14:46:18.043Z,24.70
2022-08-05T14:48:50.005Z,24.85
2022-08-05T14:51:18.224Z,24.97
2022-08-05T14:54:26.979Z,25.33
2022-08-05T14:56:44.371Z,24.81
2022-08-05T14:59:15.896Z,24.42
2022-08-05T15:01:48.115Z,24.23
2022-08-05T15:04:17.650Z,24.06
2022-08-05T15:06:49.664Z,24.31
2022-08-05T15:09:51.574Z,24.09
2022-08-05T15:12:11.402Z,24.16
2022-08-05T15:14:48.068Z,24.11
2022-08-05T15:17:46.468Z,24.24
2022-08-05T15:20:18.814Z,23.80
2022-08-05T15:22:54.052Z,23.96
2022-08-05T15:25:51.204Z,23.90
2022-08-05T15:28:14.650Z,23.69
2022-08-05T15:30:43.251Z,23.48
2022-08-05T15:33:11.811Z,23.33
2022-08-05T15:35:45.187Z,23.32
2022-08-05T15:38:35.581Z,23.15
2022-08-05T15:41:21.949Z,23.07
2022-08-05T15:43:51.663Z,23.58
2022-08-05T15:46:20.903Z,22.91
2022-08-05T15:49:00.950Z,23.44
2022-08-05T15:52:13.176Z,23.41
2022-08-05T15:54:29.487Z,22.98
2022-08-05T15:57:07.466Z,22.89
2022-08-05T15:59:36.454Z,23.58
2022-08-05T16:02:09.622Z,23.68
2022-08-05T16:04:43.282Z,23.29
2022-08-05T16:07:12.025Z,23.75
2022-08-05T16:09:42.077Z,22.96
2022-08-05T16:12:13.944Z,23.10
2022-08-05T16:14:43.490Z,23.51
2022-08-05T16:17:13.487Z,22.93
2022-08-05T16:20:04.584Z,23.08
2022-08-05T16:22:34.450Z,23.09
2022-08-05T16:25:08.163Z,23.70
2022-08-05T16:27:46.905Z,24.42
2022-08-05T16:30:29.050Z,24.26
2022-08-05T16:32:57.586Z,24.26
2022-08-05T16:35:28.592Z,24.83
2022-08-05T16:38:03.685Z,24.69
2022-08-05T16:40:51.916Z,24.55
2022-08-05T16:43:31.953Z,24.32
2022-08-05T16:46:23.846Z,24.70
2022-08-05T16:48:51.244Z,24.40
2022-08-05T16:51:19.212Z,24.14
2022-08-05T16:54:04.928Z,24.43
2022-08-05T16:56:41.619Z,24.32
2022-08-05T16:59:11.935Z,24.30
2022-08-05T17:01:53.206Z,24.72
2022-08-05T17:04:26.381Z,24.71
2022-08-05T17:07:00.088Z,25.04
2022-08-05T17:09:29.512Z,24.91
2022-08-05T17:11:59.166Z,25.11
2022-08-05T17:14:36.684Z,25.45
2022-08-05T17:17:14.523Z,25.85
2022-08-05T17:19:46.156Z,25.86
2022-08-05T17:22:24.782Z,26.39
2022-08-05T17:24:57.003Z,26.34
2022-08-05T17:27:27.274Z,27.00
2022-08-05T17:30:11.898Z,26.73
2022-08-05T17:32:42.180Z,27.67
2022-08-05T17:35:10.974Z,27.92
2022-08-05T17:37:45.225Z,29.01
2022-08-05T17:40:16.147Z,29.58
2022-08-05T17:42:50.638Z,30.91
2022-08-05T17:45:22.937Z,31.57
2022-08-05T17:47:54.982Z,32.77
2022-08-05T17:50:28.571Z,34.00
2022-08-05T17:53:00.047Z,34.82
2022-08-05T17:55:37.218Z,35.33
2022-08-05T17:58:09.385Z,36.11
2022-08-05T18:00:44.962Z,37.29
2022-08-05T18:03:27.984Z,37.73
2022-08-05T18:06:05.888Z,38.45
2022-08-05T18:08:44.151Z,38.87
2022-08-05T18:11:23.208Z,39.13
2022-08-05T18:13:53.969Z,39.44
2022-08-05T18:16:23.340Z,39.50
2022-08-05T18:18:53.169Z,39.45
2022-08-05T18:21:26.519Z,39.62
2022-08-05T18:23:57.197Z,39.70
2022-08-05T18:26:29.361Z,39.73
2022-08-05T18:29:01.385Z,39.65
2022-08-05T18:31:32.996Z,39.71
2022-08-05T18:34:03.893Z,39.50
2022-08-05T18:36:36.012Z,39.63
2022-08-05T18:39:06.672Z,39.45
2022-08-05T18:41:57.705Z,39.56
2022-08-05T18:44:34.798Z,39.51
2022-08-05T18:47:07.229Z,39.45
2022-08-05T18:49:58.227Z,39.79
2022-08-05T18:52:35.751Z,39.61
2022-08-05T18:55:10.301Z,40.02
2022-08-05T18:57:43.484Z,40.20
2022-08-05T19:01:58.513Z,40.34
2022-08-05T19:06:11.105Z,40.39
2022-08-05T19:08:18.796Z,40.14
2022-08-05T19:10:46.874Z,40.36
2022-08-05T19:13:15.886Z,40.42
2022-08-05T19:15:57.129Z,41.05
2022-08-05T19:18:28.823Z,41.16
2022-08-05T19:20:59.535Z,41.92
2022-08-05T19:24:06.653Z,41.81
2022-08-05T19:26:17.950Z,41.96
2022-08-05T19:28:46.910Z,42.03
2022-08-05T19:31:19.505Z,42.21
2022-08-05T19:33:56.366Z,42.66
2022-08-05T19:36:27.085Z,42.58
2022-08-05T19:39:00.950Z,42.59
2022-08-05T19:41:58.211Z,42.51
2022-08-05T19:44:18.682Z,42.39
2022-08-05T19:46:47.415Z,42.66
2022-08-05T19:49:18.343Z,42.87
2022-08-05T19:52:08.682Z,43.17
2022-08-05T19:54:37.042Z,43.38
2022-08-05T19:57:09.350Z,42.77
2022-08-05T20:00:00.590Z,42.55
2022-08-05T20:02:30.250Z,42.90
2022-08-05T20:05:00.118Z,42.48
2022-08-05T20:07:48.662Z,42.75
2022-08-05T20:10:19.391Z,42.66
2022-08-05T20:12:50.506Z,43.14
2022-08-05T20:15:23.454Z,42.89
2022-08-05T20:18:09.592Z,43.34
2022-08-05T20:20:39.600Z,43.16
2022-08-05T20:23:08.933Z,43.21
2022-08-05T20:25:40.629Z,43.50
2022-08-05T20:28:14.492Z,43.98
2022-08-05T20:30:43.189Z,43.57
2022-08-05T20:33:11.451Z,44.11
2022-08-05T20:35:45.718Z,43.92
2022-08-05T20:38:26.954Z,44.16
2022-08-05T20:40:56.488Z,44.65
2022-08-05T20:43:33.181Z,44.90
2022-08-05T20:46:18.551Z,45.05
2022-08-05T20:48:53.259Z,44.76
2022-08-05T20:51:22.824Z,44.93
2022-08-05T20:53:56.521Z,44.64
2022-08-05T20:56:28.745Z,44.80
2022-08-05T20:58:59.999Z,44.80
2022-08-05T21:01:39.252Z,45.28
2022-08-05T21:04:10.526Z,45.05
2022-08-05T21:06:45.351Z,45.45
2022-08-05T21:09:15.922Z,45.18
2022-08-05T21:12:09.615Z,45.26
2022-08-05T21:14:34.710Z,45.30
2022-08-05T21:17:05.435Z,45.66
2022-08-05T21:19:47.527Z,45.96
2022-08-05T21:22:21.810Z,46.57
2022-08-05T21:24:54.806Z,46.44
2022-08-05T21:27:25.498Z,46.91
2022-08-05T21:29:57.401Z,47.12
2022-08-05T21:32:27.171Z,46.96
2022-08-05T21:35:16.767Z,46.36
2022-08-05T21:37:47.431Z,46.20
2022-08-05T21:40:23.407Z,46.45
2022-08-05T21:42:52.903Z,46.06
2022-08-05T21:45:24.600Z,46.19
2022-08-05T21:47:56.478Z,45.91
2022-08-05T21:50:26.022Z,46.58
2022-08-05T21:52:58.728Z,46.25
2022-08-05T21:56:01.049Z,46.70
2022-08-05T21:58:25.030Z,46.82
2022-08-05T22:01:00.736Z,46.50
2022-08-05T22:03:48.299Z,46.58
2022-08-05T22:06:23.101Z,47.01
2022-08-05T22:09:13.997Z,47.30
2022-08-05T22:11:46.703Z,47.16
2022-08-05T22:14:35.502Z,47.16
2022-08-05T22:17:06.718Z,47.39
2022-08-05T22:20:02.074Z,47.29
2022-08-05T22:22:28.137Z,47.18
2022-08-05T22:25:18.262Z,47.22
2022-08-05T22:28:09.109Z,47.01
2022-08-05T22:30:56.169Z,47.04
2022-08-05T22:33:57.633Z,47.14
2022-08-05T22:36:15.418Z,47.02
2022-08-05T22:38:48.489Z,47.28
2022-08-05T22:41:26.395Z,47.34
2022-08-05T22:44:08.682Z,47.43
2022-08-05T22:46:39.620Z,47.57
2022-08-05T22:49:12.457Z,47.47
2022-08-05T22:52:05.453Z,47.48
2022-08-05T22:54:36.591Z,47.67
2022-08-05T22:57:05.095Z,48.07
2022-08-05T22:59:48.532Z,48.19
2022-08-05T23:02:28.789Z,48.68
2022-08-05T23:04:57.142Z,48.62
2022-08-05T23:07:25.046Z,48.78
2022-08-05T23:10:01.731Z,48.30
2022-08-05T23:12:32.700Z,48.18
2022-08-05T23:15:03.324Z,48.42
2022-08-05T23:17:32.856Z,48.53
2022-08-05T23:20:16.537Z,48.99
2022-08-05T23:22:47.713Z,49.02
2022-08-05T23:25:51.688Z,49.20
2022-08-05T23:28:08.009Z,49.02
2022-08-05T23:30:40.258Z,49.26
2022-08-05T23:33:21.851Z,48.60
2022-08-05T23:35:55.831Z,48.21
2022-08-05T23:38:25.969Z,48.48
2022-08-05T23:40:54.852Z,48.50
2022-08-05T23:43:25.572Z,48.39
2022-08-05T23:46:20.786Z,48.05
2022-08-05T23:49:00.699Z,48.01
2022-08-05T23:51:53.587Z,47.98
2022-08-05T23:54:25.820Z,47.95
2022-08-05T23:56:58.271Z,47.97
